sensor_id;sensor_type;location;lat;lon;timestamp;P1;durP1;ratioP1;P2;durP2;ratioP2
26742;SDS011;14341;51.256;22.478;2022-10-16T00:00:42;41.13;;;26.63;;
26742;SDS011;14341;51.256;22.478;2022-10-16T00:03:47;41.10;;;26.40;;
26742;SDS011;14341;51.256;22.478;2022-10-16T00:06:52;40.20;;;27.15;;
26742;SDS011;14341;51.256;22.478;2022-10-16T00:09:56;42.75;;;27.27;;
26742;SDS011;14341;51.256;22.478;2022-10-16T00:12:59;41.50;;;29.23;;
26742;SDS011;14341;51.256;22.478;2022-10-16T00:16:03;40.40;;;27.30;;
26742;SDS011;14341;51.256;22.478;2022-10-16T00:19:08;42.30;;;27.02;;
26742;SDS011;14341;51.256;22.478;2022-10-16T00:22:14;44.45;;;28.33;;
26742;SDS011;14341;51.256;22.478;2022-10-16T00:25:18;43.38;;;29.05;;
26742;SDS011;14341;51.256;22.478;2022-10-16T00:28:21;42.00;;;28.48;;
26742;SDS011;14341;51.256;22.478;2022-10-16T00:31:24;45.05;;;28.80;;
26742;SDS011;14341;51.256;22.478;2022-10-16T00:34:28;43.70;;;28.48;;
26742;SDS011;14341;51.256;22.478;2022-10-16T00:37:33;48.60;;;28.90;;
26742;SDS011;14341;51.256;22.478;2022-10-16T00:40:36;43.58;;;30.15;;
26742;SDS011;14341;51.256;22.478;2022-10-16T00:43:40;44.70;;;29.27;;
26742;SDS011;14341;51.256;22.478;2022-10-16T00:46:45;39.72;;;28.70;;
26742;SDS011;14341;51.256;22.478;2022-10-16T00:49:48;45.55;;;29.10;;
26742;SDS011;14341;51.256;22.478;2022-10-16T00:52:55;43.30;;;29.30;;
26742;SDS011;14341;51.256;22.478;2022-10-16T00:56:00;40.35;;;27.85;;
26742;SDS011;14341;51.256;22.478;2022-10-16T00:59:04;38.03;;;28.08;;
26742;SDS011;14341;51.256;22.478;2022-10-16T01:02:16;43.33;;;28.88;;
26742;SDS011;14341;51.256;22.478;2022-10-16T01:05:43;42.83;;;28.45;;
26742;SDS011;14341;51.256;22.478;2022-10-16T01:13:06;47.13;;;29.48;;
26742;SDS011;14341;51.256;22.478;2022-10-16T01:16:29;40.60;;;27.55;;
26742;SDS011;14341;51.256;22.478;2022-10-16T01:19:44;43.75;;;29.50;;
26742;SDS011;14341;51.256;22.478;2022-10-16T01:23:21;46.20;;;28.80;;
26742;SDS011;14341;51.256;22.478;2022-10-16T01:34:27;44.65;;;29.83;;
26742;SDS011;14341;51.256;22.478;2022-10-16T01:37:47;45.45;;;30.35;;
26742;SDS011;14341;51.256;22.478;2022-10-16T01:41:04;52.15;;;31.20;;
26742;SDS011;14341;51.256;22.478;2022-10-16T01:44:16;52.38;;;32.03;;
26742;SDS011;14341;51.256;22.478;2022-10-16T01:47:25;52.28;;;33.40;;
26742;SDS011;14341;51.256;22.478;2022-10-16T01:50:32;55.05;;;33.22;;
26742;SDS011;14341;51.256;22.478;2022-10-16T01:53:58;48.03;;;32.88;;
26742;SDS011;14341;51.256;22.478;2022-10-16T01:57:19;49.72;;;32.10;;
26742;SDS011;14341;51.256;22.478;2022-10-16T02:00:32;51.33;;;33.10;;
26742;SDS011;14341;51.256;22.478;2022-10-16T02:03:41;51.60;;;31.77;;
26742;SDS011;14341;51.256;22.478;2022-10-16T02:10:54;53.03;;;32.47;;
26742;SDS011;14341;51.256;22.478;2022-10-16T02:14:04;51.95;;;32.95;;
26742;SDS011;14341;51.256;22.478;2022-10-16T02:20:40;49.95;;;32.72;;
26742;SDS011;14341;51.256;22.478;2022-10-16T02:24:02;49.85;;;32.08;;
26742;SDS011;14341;51.256;22.478;2022-10-16T02:27:40;52.20;;;33.47;;
26742;SDS011;14341;51.256;22.478;2022-10-16T02:31:18;50.97;;;33.22;;
26742;SDS011;14341;51.256;22.478;2022-10-16T02:34:36;54.38;;;33.53;;
26742;SDS011;14341;51.256;22.478;2022-10-16T02:37:51;51.30;;;33.13;;
26742;SDS011;14341;51.256;22.478;2022-10-16T02:41:09;52.13;;;34.00;;
26742;SDS011;14341;51.256;22.478;2022-10-16T02:44:14;49.70;;;32.97;;
26742;SDS011;14341;51.256;22.478;2022-10-16T02:50:58;53.88;;;34.28;;
26742;SDS011;14341;51.256;22.478;2022-10-16T02:54:16;59.10;;;36.35;;
26742;SDS011;14341;51.256;22.478;2022-10-16T03:01:04;52.83;;;34.03;;
26742;SDS011;14341;51.256;22.478;2022-10-16T03:04:07;56.20;;;34.88;;
26742;SDS011;14341;51.256;22.478;2022-10-16T03:07:11;56.25;;;35.10;;
26742;SDS011;14341;51.256;22.478;2022-10-16T03:10:14;55.38;;;35.25;;
26742;SDS011;14341;51.256;22.478;2022-10-16T03:13:19;59.30;;;35.05;;
26742;SDS011;14341;51.256;22.478;2022-10-16T03:16:23;57.65;;;34.75;;
26742;SDS011;14341;51.256;22.478;2022-10-16T03:19:26;61.10;;;36.17;;
26742;SDS011;14341;51.256;22.478;2022-10-16T03:22:30;58.92;;;36.33;;
26742;SDS011;14341;51.256;22.478;2022-10-16T03:25:33;56.33;;;35.90;;
26742;SDS011;14341;51.256;22.478;2022-10-16T03:28:38;56.95;;;35.85;;
26742;SDS011;14341;51.256;22.478;2022-10-16T03:31:41;57.28;;;35.58;;
26742;SDS011;14341;51.256;22.478;2022-10-16T03:34:44;54.17;;;36.15;;
26742;SDS011;14341;51.256;22.478;2022-10-16T03:37:48;60.60;;;37.08;;
26742;SDS011;14341;51.256;22.478;2022-10-16T03:40:51;60.78;;;36.90;;
26742;SDS011;14341;51.256;22.478;2022-10-16T03:43:56;61.70;;;37.40;;
26742;SDS011;14341;51.256;22.478;2022-10-16T03:46:59;58.92;;;36.00;;
26742;SDS011;14341;51.256;22.478;2022-10-16T03:50:03;61.85;;;37.20;;
26742;SDS011;14341;51.256;22.478;2022-10-16T03:53:07;59.17;;;37.90;;
26742;SDS011;14341;51.256;22.478;2022-10-16T03:56:11;61.25;;;37.75;;
26742;SDS011;14341;51.256;22.478;2022-10-16T03:59:15;55.88;;;34.92;;
26742;SDS011;14341;51.256;22.478;2022-10-16T04:02:19;59.45;;;36.15;;
26742;SDS011;14341;51.256;22.478;2022-10-16T04:05:22;53.67;;;34.85;;
26742;SDS011;14341;51.256;22.478;2022-10-16T04:08:28;52.78;;;35.35;;
26742;SDS011;14341;51.256;22.478;2022-10-16T04:11:32;55.85;;;34.95;;
26742;SDS011;14341;51.256;22.478;2022-10-16T04:14:36;54.97;;;35.10;;
26742;SDS011;14341;51.256;22.478;2022-10-16T04:17:39;50.47;;;33.95;;
26742;SDS011;14341;51.256;22.478;2022-10-16T04:20:43;54.63;;;34.03;;
26742;SDS011;14341;51.256;22.478;2022-10-16T04:23:46;54.38;;;34.50;;
26742;SDS011;14341;51.256;22.478;2022-10-16T04:26:49;50.90;;;32.90;;
26742;SDS011;14341;51.256;22.478;2022-10-16T04:29:54;49.17;;;33.25;;
26742;SDS011;14341;51.256;22.478;2022-10-16T04:32:57;49.92;;;31.85;;
26742;SDS011;14341;51.256;22.478;2022-10-16T04:36:02;46.13;;;31.38;;
26742;SDS011;14341;51.256;22.478;2022-10-16T04:39:06;53.08;;;31.77;;
26742;SDS011;14341;51.256;22.478;2022-10-16T04:42:09;51.75;;;29.95;;
26742;SDS011;14341;51.256;22.478;2022-10-16T04:45:14;43.72;;;30.73;;
26742;SDS011;14341;51.256;22.478;2022-10-16T04:48:17;41.15;;;28.92;;
26742;SDS011;14341;51.256;22.478;2022-10-16T04:51:21;49.75;;;30.13;;
26742;SDS011;14341;51.256;22.478;2022-10-16T04:54:24;44.17;;;30.30;;
26742;SDS011;14341;51.256;22.478;2022-10-16T04:57:28;42.13;;;28.52;;
26742;SDS011;14341;51.256;22.478;2022-10-16T05:00:34;43.28;;;28.67;;
26742;SDS011;14341;51.256;22.478;2022-10-16T05:03:37;45.05;;;28.08;;
26742;SDS011;14341;51.256;22.478;2022-10-16T05:06:41;39.97;;;27.65;;
26742;SDS011;14341;51.256;22.478;2022-10-16T05:09:44;41.83;;;27.52;;
26742;SDS011;14341;51.256;22.478;2022-10-16T05:12:47;40.63;;;27.02;;
26742;SDS011;14341;51.256;22.478;2022-10-16T05:15:52;38.05;;;25.67;;
26742;SDS011;14341;51.256;22.478;2022-10-16T05:18:56;37.88;;;26.10;;
26742;SDS011;14341;51.256;22.478;2022-10-16T05:22:19;41.30;;;25.40;;
26742;SDS011;14341;51.256;22.478;2022-10-16T05:25:22;46.90;;;26.08;;
26742;SDS011;14341;51.256;22.478;2022-10-16T05:28:26;41.78;;;24.98;;
26742;SDS011;14341;51.256;22.478;2022-10-16T05:31:33;36.40;;;25.20;;
26742;SDS011;14341;51.256;22.478;2022-10-16T05:34:37;41.67;;;25.55;;
26742;SDS011;14341;51.256;22.478;2022-10-16T05:37:40;41.33;;;26.42;;
26742;SDS011;14341;51.256;22.478;2022-10-16T05:40:43;46.55;;;25.55;;
26742;SDS011;14341;51.256;22.478;2022-10-16T05:43:53;41.53;;;25.83;;
26742;SDS011;14341;51.256;22.478;2022-10-16T05:46:58;39.92;;;24.45;;
26742;SDS011;14341;51.256;22.478;2022-10-16T05:50:02;36.60;;;25.23;;
26742;SDS011;14341;51.256;22.478;2022-10-16T05:53:06;39.22;;;24.50;;
26742;SDS011;14341;51.256;22.478;2022-10-16T05:56:10;37.50;;;24.25;;
26742;SDS011;14341;51.256;22.478;2022-10-16T05:59:14;35.38;;;25.13;;
26742;SDS011;14341;51.256;22.478;2022-10-16T06:02:19;33.30;;;23.63;;
26742;SDS011;14341;51.256;22.478;2022-10-16T06:05:22;36.60;;;23.33;;
26742;SDS011;14341;51.256;22.478;2022-10-16T06:08:26;36.35;;;24.00;;
26742;SDS011;14341;51.256;22.478;2022-10-16T06:11:30;35.55;;;23.63;;
26742;SDS011;14341;51.256;22.478;2022-10-16T06:14:35;34.97;;;23.90;;
26742;SDS011;14341;51.256;22.478;2022-10-16T06:17:40;36.72;;;23.25;;
26742;SDS011;14341;51.256;22.478;2022-10-16T06:20:43;36.67;;;23.40;;
26742;SDS011;14341;51.256;22.478;2022-10-16T06:23:47;35.45;;;23.20;;
26742;SDS011;14341;51.256;22.478;2022-10-16T06:26:50;37.25;;;23.15;;
26742;SDS011;14341;51.256;22.478;2022-10-16T06:29:54;34.85;;;22.83;;
26742;SDS011;14341;51.256;22.478;2022-10-16T06:32:58;33.40;;;23.85;;
26742;SDS011;14341;51.256;22.478;2022-10-16T06:36:02;36.22;;;24.02;;
26742;SDS011;14341;51.256;22.478;2022-10-16T06:39:06;30.08;;;22.08;;
26742;SDS011;14341;51.256;22.478;2022-10-16T06:42:10;29.30;;;21.75;;
26742;SDS011;14341;51.256;22.478;2022-10-16T06:45:14;33.38;;;23.05;;
26742;SDS011;14341;51.256;22.478;2022-10-16T06:48:18;33.00;;;21.15;;
26742;SDS011;14341;51.256;22.478;2022-10-16T06:51:22;33.70;;;21.88;;
26742;SDS011;14341;51.256;22.478;2022-10-16T06:54:26;34.13;;;21.98;;
26742;SDS011;14341;51.256;22.478;2022-10-16T06:57:30;31.25;;;21.17;;
26742;SDS011;14341;51.256;22.478;2022-10-16T07:00:33;35.17;;;21.23;;
26742;SDS011;14341;51.256;22.478;2022-10-16T07:03:38;29.70;;;20.80;;
26742;SDS011;14341;51.256;22.478;2022-10-16T07:06:42;29.63;;;21.80;;
26742;SDS011;14341;51.256;22.478;2022-10-16T07:09:45;33.78;;;21.38;;
26742;SDS011;14341;51.256;22.478;2022-10-16T07:12:49;32.60;;;20.75;;
26742;SDS011;14341;51.256;22.478;2022-10-16T07:15:52;27.05;;;19.55;;
26742;SDS011;14341;51.256;22.478;2022-10-16T07:18:58;27.92;;;19.35;;
26742;SDS011;14341;51.256;22.478;2022-10-16T07:22:03;30.90;;;19.55;;
26742;SDS011;14341;51.256;22.478;2022-10-16T07:25:06;29.17;;;19.35;;
26742;SDS011;14341;51.256;22.478;2022-10-16T07:28:10;27.90;;;19.42;;
26742;SDS011;14341;51.256;22.478;2022-10-16T07:31:15;35.80;;;25.33;;
26742;SDS011;14341;51.256;22.478;2022-10-16T07:34:21;29.05;;;18.75;;
26742;SDS011;14341;51.256;22.478;2022-10-16T07:37:24;24.38;;;17.67;;
26742;SDS011;14341;51.256;22.478;2022-10-16T07:40:29;24.13;;;18.15;;
26742;SDS011;14341;51.256;22.478;2022-10-16T07:43:33;27.50;;;18.98;;
26742;SDS011;14341;51.256;22.478;2022-10-16T07:46:37;29.92;;;18.45;;
26742;SDS011;14341;51.256;22.478;2022-10-16T07:49:42;30.60;;;18.48;;
26742;SDS011;14341;51.256;22.478;2022-10-16T07:52:46;27.15;;;19.00;;
26742;SDS011;14341;51.256;22.478;2022-10-16T07:55:50;26.20;;;18.15;;
26742;SDS011;14341;51.256;22.478;2022-10-16T07:58:53;24.60;;;17.55;;
26742;SDS011;14341;51.256;22.478;2022-10-16T08:01:57;31.98;;;18.95;;
26742;SDS011;14341;51.256;22.478;2022-10-16T08:05:02;27.27;;;17.08;;
26742;SDS011;14341;51.256;22.478;2022-10-16T08:08:10;23.00;;;16.70;;
26742;SDS011;14341;51.256;22.478;2022-10-16T08:11:15;26.75;;;16.83;;
26742;SDS011;14341;51.256;22.478;2022-10-16T08:14:19;30.80;;;17.58;;
26742;SDS011;14341;51.256;22.478;2022-10-16T08:17:22;24.25;;;16.52;;
26742;SDS011;14341;51.256;22.478;2022-10-16T08:20:27;24.73;;;16.70;;
26742;SDS011;14341;51.256;22.478;2022-10-16T08:23:32;21.05;;;16.13;;
26742;SDS011;14341;51.256;22.478;2022-10-16T08:26:35;26.45;;;16.55;;
26742;SDS011;14341;51.256;22.478;2022-10-16T08:29:39;36.00;;;25.58;;
26742;SDS011;14341;51.256;22.478;2022-10-16T08:32:42;23.90;;;16.92;;
26742;SDS011;14341;51.256;22.478;2022-10-16T08:35:51;21.08;;;15.88;;
26742;SDS011;14341;51.256;22.478;2022-10-16T08:38:55;15.90;;;11.93;;
26742;SDS011;14341;51.256;22.478;2022-10-16T08:42:05;30.67;;;15.30;;
26742;SDS011;14341;51.256;22.478;2022-10-16T08:45:20;20.02;;;14.95;;
26742;SDS011;14341;51.256;22.478;2022-10-16T08:48:34;22.77;;;15.65;;
26742;SDS011;14341;51.256;22.478;2022-10-16T08:51:47;22.05;;;15.80;;
26742;SDS011;14341;51.256;22.478;2022-10-16T08:54:53;23.13;;;14.77;;
26742;SDS011;14341;51.256;22.478;2022-10-16T08:57:58;22.33;;;14.65;;
26742;SDS011;14341;51.256;22.478;2022-10-16T09:01:03;19.60;;;13.85;;
26742;SDS011;14341;51.256;22.478;2022-10-16T09:08:01;19.95;;;13.52;;
26742;SDS011;14341;51.256;22.478;2022-10-16T09:11:14;19.65;;;13.55;;
26742;SDS011;14341;51.256;22.478;2022-10-16T09:14:30;19.48;;;14.07;;
26742;SDS011;14341;51.256;22.478;2022-10-16T09:17:50;61.00;;;47.22;;
26742;SDS011;14341;51.256;22.478;2022-10-16T09:21:01;20.00;;;13.82;;
26742;SDS011;14341;51.256;22.478;2022-10-16T09:24:15;24.98;;;13.27;;
26742;SDS011;14341;51.256;22.478;2022-10-16T09:27:20;20.33;;;13.88;;
26742;SDS011;14341;51.256;22.478;2022-10-16T09:30:26;25.02;;;13.45;;
26742;SDS011;14341;51.256;22.478;2022-10-16T09:33:33;18.67;;;12.60;;
26742;SDS011;14341;51.256;22.478;2022-10-16T09:36:39;16.55;;;12.23;;
26742;SDS011;14341;51.256;22.478;2022-10-16T09:39:47;17.73;;;12.73;;
26742;SDS011;14341;51.256;22.478;2022-10-16T09:42:56;17.38;;;13.40;;
26742;SDS011;14341;51.256;22.478;2022-10-16T09:46:06;19.05;;;12.65;;
26742;SDS011;14341;51.256;22.478;2022-10-16T09:49:18;21.85;;;13.00;;
26742;SDS011;14341;51.256;22.478;2022-10-16T09:52:24;20.52;;;13.23;;
26742;SDS011;14341;51.256;22.478;2022-10-16T09:55:29;20.70;;;12.68;;
26742;SDS011;14341;51.256;22.478;2022-10-16T09:58:32;17.98;;;13.00;;
26742;SDS011;14341;51.256;22.478;2022-10-16T10:01:36;17.08;;;13.63;;
26742;SDS011;14341;51.256;22.478;2022-10-16T10:04:42;17.63;;;13.15;;
26742;SDS011;14341;51.256;22.478;2022-10-16T10:07:55;19.83;;;13.70;;
26742;SDS011;14341;51.256;22.478;2022-10-16T10:11:01;18.92;;;13.30;;
26742;SDS011;14341;51.256;22.478;2022-10-16T10:14:06;17.85;;;12.90;;
26742;SDS011;14341;51.256;22.478;2022-10-16T10:17:19;22.55;;;13.57;;
26742;SDS011;14341;51.256;22.478;2022-10-16T10:20:24;22.45;;;13.40;;
26742;SDS011;14341;51.256;22.478;2022-10-16T10:23:30;19.38;;;12.95;;
26742;SDS011;14341;51.256;22.478;2022-10-16T10:26:35;15.05;;;12.38;;
26742;SDS011;14341;51.256;22.478;2022-10-16T10:29:45;11.95;;;9.55;;
26742;SDS011;14341;51.256;22.478;2022-10-16T10:33:02;18.42;;;13.00;;
26742;SDS011;14341;51.256;22.478;2022-10-16T10:36:32;17.63;;;12.98;;
26742;SDS011;14341;51.256;22.478;2022-10-16T10:39:39;19.90;;;15.00;;
26742;SDS011;14341;51.256;22.478;2022-10-16T10:42:52;18.45;;;13.70;;
26742;SDS011;14341;51.256;22.478;2022-10-16T10:46:02;18.65;;;13.45;;
26742;SDS011;14341;51.256;22.478;2022-10-16T10:49:27;20.75;;;12.85;;
26742;SDS011;14341;51.256;22.478;2022-10-16T10:52:50;16.17;;;12.63;;
26742;SDS011;14341;51.256;22.478;2022-10-16T10:56:07;18.27;;;12.07;;
26742;SDS011;14341;51.256;22.478;2022-10-16T10:59:37;19.15;;;12.30;;
26742;SDS011;14341;51.256;22.478;2022-10-16T11:02:54;18.60;;;11.88;;
26742;SDS011;14341;51.256;22.478;2022-10-16T11:06:04;21.45;;;14.77;;
26742;SDS011;14341;51.256;22.478;2022-10-16T11:09:12;26.02;;;14.70;;
26742;SDS011;14341;51.256;22.478;2022-10-16T11:12:20;20.83;;;13.18;;
26742;SDS011;14341;51.256;22.478;2022-10-16T11:15:30;16.10;;;11.77;;
26742;SDS011;14341;51.256;22.478;2022-10-16T11:18:40;17.23;;;11.93;;
26742;SDS011;14341;51.256;22.478;2022-10-16T11:21:50;16.15;;;12.07;;
26742;SDS011;14341;51.256;22.478;2022-10-16T11:25:04;25.30;;;16.50;;
26742;SDS011;14341;51.256;22.478;2022-10-16T11:28:16;22.83;;;15.38;;
26742;SDS011;14341;51.256;22.478;2022-10-16T11:31:27;21.83;;;13.10;;
26742;SDS011;14341;51.256;22.478;2022-10-16T11:34:35;24.05;;;16.20;;
26742;SDS011;14341;51.256;22.478;2022-10-16T11:37:44;32.72;;;18.50;;
26742;SDS011;14341;51.256;22.478;2022-10-16T11:40:51;46.03;;;21.23;;
26742;SDS011;14341;51.256;22.478;2022-10-16T11:44:09;24.00;;;15.40;;
26742;SDS011;14341;51.256;22.478;2022-10-16T11:47:26;17.15;;;12.57;;
26742;SDS011;14341;51.256;22.478;2022-10-16T11:50:55;18.17;;;12.30;;
26742;SDS011;14341;51.256;22.478;2022-10-16T11:54:04;19.45;;;12.13;;
26742;SDS011;14341;51.256;22.478;2022-10-16T11:57:17;67.40;;;30.02;;
26742;SDS011;14341;51.256;22.478;2022-10-16T12:00:27;55.83;;;29.08;;
26742;SDS011;14341;51.256;22.478;2022-10-16T12:03:38;57.80;;;29.70;;
26742;SDS011;14341;51.256;22.478;2022-10-16T12:06:50;48.47;;;27.80;;
26742;SDS011;14341;51.256;22.478;2022-10-16T12:09:57;39.80;;;21.85;;
26742;SDS011;14341;51.256;22.478;2022-10-16T12:13:31;32.22;;;18.65;;
26742;SDS011;14341;51.256;22.478;2022-10-16T12:16:36;55.97;;;32.85;;
26742;SDS011;14341;51.256;22.478;2022-10-16T12:19:42;43.22;;;25.10;;
26742;SDS011;14341;51.256;22.478;2022-10-16T12:22:47;64.63;;;33.53;;
26742;SDS011;14341;51.256;22.478;2022-10-16T12:25:54;36.92;;;22.75;;
26742;SDS011;14341;51.256;22.478;2022-10-16T12:29:09;70.03;;;36.20;;
26742;SDS011;14341;51.256;22.478;2022-10-16T12:32:23;31.70;;;18.17;;
26742;SDS011;14341;51.256;22.478;2022-10-16T12:35:49;30.75;;;17.65;;
26742;SDS011;14341;51.256;22.478;2022-10-16T12:38:53;36.75;;;21.90;;
26742;SDS011;14341;51.256;22.478;2022-10-16T12:42:00;37.25;;;20.67;;
26742;SDS011;14341;51.256;22.478;2022-10-16T12:45:13;48.10;;;25.85;;
26742;SDS011;14341;51.256;22.478;2022-10-16T12:48:30;47.92;;;23.65;;
26742;SDS011;14341;51.256;22.478;2022-10-16T12:51:55;29.65;;;18.35;;
26742;SDS011;14341;51.256;22.478;2022-10-16T12:54:59;31.63;;;18.40;;
26742;SDS011;14341;51.256;22.478;2022-10-16T12:58:06;21.80;;;14.60;;
26742;SDS011;14341;51.256;22.478;2022-10-16T13:01:29;17.55;;;10.15;;
26742;SDS011;14341;51.256;22.478;2022-10-16T13:04:42;21.10;;;12.90;;
26742;SDS011;14341;51.256;22.478;2022-10-16T13:08:01;18.58;;;12.38;;
26742;SDS011;14341;51.256;22.478;2022-10-16T13:11:17;20.45;;;12.52;;
26742;SDS011;14341;51.256;22.478;2022-10-16T13:14:36;20.17;;;14.02;;
26742;SDS011;14341;51.256;22.478;2022-10-16T13:17:54;19.42;;;14.07;;
26742;SDS011;14341;51.256;22.478;2022-10-16T13:21:07;20.35;;;12.65;;
26742;SDS011;14341;51.256;22.478;2022-10-16T13:24:25;19.55;;;12.48;;
26742;SDS011;14341;51.256;22.478;2022-10-16T13:27:41;19.30;;;11.88;;
26742;SDS011;14341;51.256;22.478;2022-10-16T13:30:55;17.45;;;12.35;;
26742;SDS011;14341;51.256;22.478;2022-10-16T13:34:00;17.08;;;11.85;;
26742;SDS011;14341;51.256;22.478;2022-10-16T13:37:15;19.70;;;13.65;;
26742;SDS011;14341;51.256;22.478;2022-10-16T13:40:22;18.00;;;12.35;;
26742;SDS011;14341;51.256;22.478;2022-10-16T13:43:27;21.23;;;16.02;;
26742;SDS011;14341;51.256;22.478;2022-10-16T13:46:34;37.15;;;21.42;;
26742;SDS011;14341;51.256;22.478;2022-10-16T13:49:37;24.85;;;15.35;;
26742;SDS011;14341;51.256;22.478;2022-10-16T13:52:41;24.40;;;14.90;;
26742;SDS011;14341;51.256;22.478;2022-10-16T13:55:46;21.77;;;13.77;;
26742;SDS011;14341;51.256;22.478;2022-10-16T13:58:58;27.88;;;14.98;;
26742;SDS011;14341;51.256;22.478;2022-10-16T14:02:05;19.65;;;12.90;;
26742;SDS011;14341;51.256;22.478;2022-10-16T14:05:20;18.75;;;12.25;;
26742;SDS011;14341;51.256;22.478;2022-10-16T14:08:24;20.30;;;12.70;;
26742;SDS011;14341;51.256;22.478;2022-10-16T14:11:31;20.88;;;11.68;;
26742;SDS011;14341;51.256;22.478;2022-10-16T14:14:40;16.50;;;11.30;;
26742;SDS011;14341;51.256;22.478;2022-10-16T14:17:45;18.90;;;10.63;;
26742;SDS011;14341;51.256;22.478;2022-10-16T14:20:52;19.45;;;10.73;;
26742;SDS011;14341;51.256;22.478;2022-10-16T14:24:10;16.95;;;10.85;;
26742;SDS011;14341;51.256;22.478;2022-10-16T14:27:23;16.35;;;10.52;;
26742;SDS011;14341;51.256;22.478;2022-10-16T14:30:32;14.05;;;10.30;;
26742;SDS011;14341;51.256;22.478;2022-10-16T14:33:39;15.98;;;10.52;;
26742;SDS011;14341;51.256;22.478;2022-10-16T14:36:42;19.13;;;10.93;;
26742;SDS011;14341;51.256;22.478;2022-10-16T14:39:48;16.23;;;11.00;;
26742;SDS011;14341;51.256;22.478;2022-10-16T14:42:54;18.77;;;12.00;;
26742;SDS011;14341;51.256;22.478;2022-10-16T14:45:58;16.98;;;11.50;;
26742;SDS011;14341;51.256;22.478;2022-10-16T14:49:04;16.30;;;10.63;;
26742;SDS011;14341;51.256;22.478;2022-10-16T14:52:18;18.23;;;11.68;;
26742;SDS011;14341;51.256;22.478;2022-10-16T14:55:22;13.80;;;10.55;;
26742;SDS011;14341;51.256;22.478;2022-10-16T14:58:27;19.90;;;13.63;;
26742;SDS011;14341;51.256;22.478;2022-10-16T15:01:31;16.17;;;11.13;;
26742;SDS011;14341;51.256;22.478;2022-10-16T15:04:35;16.80;;;11.32;;
26742;SDS011;14341;51.256;22.478;2022-10-16T15:07:38;22.67;;;13.52;;
26742;SDS011;14341;51.256;22.478;2022-10-16T15:10:43;15.55;;;11.75;;
26742;SDS011;14341;51.256;22.478;2022-10-16T15:13:48;16.02;;;12.13;;
26742;SDS011;14341;51.256;22.478;2022-10-16T15:16:52;20.77;;;13.23;;
26742;SDS011;14341;51.256;22.478;2022-10-16T15:19:56;17.38;;;13.25;;
26742;SDS011;14341;51.256;22.478;2022-10-16T15:23:00;20.48;;;14.25;;
26742;SDS011;14341;51.256;22.478;2022-10-16T15:26:05;20.67;;;13.95;;
26742;SDS011;14341;51.256;22.478;2022-10-16T15:29:10;22.00;;;14.32;;
26742;SDS011;14341;51.256;22.478;2022-10-16T15:32:14;27.83;;;19.10;;
26742;SDS011;14341;51.256;22.478;2022-10-16T15:35:17;59.80;;;37.55;;
26742;SDS011;14341;51.256;22.478;2022-10-16T15:38:21;57.28;;;35.03;;
26742;SDS011;14341;51.256;22.478;2022-10-16T15:41:25;40.10;;;25.33;;
26742;SDS011;14341;51.256;22.478;2022-10-16T15:44:30;37.65;;;24.27;;
26742;SDS011;14341;51.256;22.478;2022-10-16T15:47:33;33.97;;;21.13;;
26742;SDS011;14341;51.256;22.478;2022-10-16T15:50:36;50.25;;;36.80;;
26742;SDS011;14341;51.256;22.478;2022-10-16T15:53:41;49.72;;;34.00;;
26742;SDS011;14341;51.256;22.478;2022-10-16T15:56:44;25.02;;;17.45;;
26742;SDS011;14341;51.256;22.478;2022-10-16T15:59:49;100.55;;;47.65;;
26742;SDS011;14341;51.256;22.478;2022-10-16T16:02:53;65.38;;;37.75;;
26742;SDS011;14341;51.256;22.478;2022-10-16T16:05:57;68.55;;;43.28;;
26742;SDS011;14341;51.256;22.478;2022-10-16T16:09:02;55.83;;;34.25;;
26742;SDS011;14341;51.256;22.478;2022-10-16T16:12:05;57.55;;;33.05;;
26742;SDS011;14341;51.256;22.478;2022-10-16T16:15:10;49.95;;;27.95;;
26742;SDS011;14341;51.256;22.478;2022-10-16T16:18:14;38.53;;;23.73;;
26742;SDS011;14341;51.256;22.478;2022-10-16T16:21:17;34.20;;;22.05;;
26742;SDS011;14341;51.256;22.478;2022-10-16T16:24:20;35.83;;;22.40;;
26742;SDS011;14341;51.256;22.478;2022-10-16T16:27:24;42.50;;;25.20;;
26742;SDS011;14341;51.256;22.478;2022-10-16T16:30:29;42.78;;;24.52;;
26742;SDS011;14341;51.256;22.478;2022-10-16T16:33:32;42.90;;;25.25;;
26742;SDS011;14341;51.256;22.478;2022-10-16T16:36:36;41.08;;;26.08;;
26742;SDS011;14341;51.256;22.478;2022-10-16T16:39:41;54.78;;;36.35;;
26742;SDS011;14341;51.256;22.478;2022-10-16T16:42:47;42.10;;;25.77;;
26742;SDS011;14341;51.256;22.478;2022-10-16T16:45:52;38.13;;;24.17;;
26742;SDS011;14341;51.256;22.478;2022-10-16T16:48:57;45.80;;;26.30;;
26742;SDS011;14341;51.256;22.478;2022-10-16T16:52:01;35.72;;;20.63;;
26742;SDS011;14341;51.256;22.478;2022-10-16T16:55:04;31.98;;;20.60;;
26742;SDS011;14341;51.256;22.478;2022-10-16T16:58:08;34.28;;;20.73;;
26742;SDS011;14341;51.256;22.478;2022-10-16T17:01:13;30.30;;;17.65;;
26742;SDS011;14341;51.256;22.478;2022-10-16T17:04:21;25.93;;;17.87;;
26742;SDS011;14341;51.256;22.478;2022-10-16T17:07:24;27.13;;;17.02;;
26742;SDS011;14341;51.256;22.478;2022-10-16T17:10:29;28.40;;;17.65;;
26742;SDS011;14341;51.256;22.478;2022-10-16T17:13:33;30.48;;;18.45;;
26742;SDS011;14341;51.256;22.478;2022-10-16T17:16:40;21.67;;;15.13;;
26742;SDS011;14341;51.256;22.478;2022-10-16T17:19:45;25.92;;;16.45;;
26742;SDS011;14341;51.256;22.478;2022-10-16T17:22:48;22.95;;;16.00;;
26742;SDS011;14341;51.256;22.478;2022-10-16T17:25:52;21.85;;;16.15;;
26742;SDS011;14341;51.256;22.478;2022-10-16T17:28:57;27.98;;;19.50;;
26742;SDS011;14341;51.256;22.478;2022-10-16T17:32:05;21.88;;;15.32;;
26742;SDS011;14341;51.256;22.478;2022-10-16T17:35:09;22.70;;;15.10;;
26742;SDS011;14341;51.256;22.478;2022-10-16T17:38:14;22.38;;;15.70;;
26742;SDS011;14341;51.256;22.478;2022-10-16T17:41:18;23.20;;;14.18;;
26742;SDS011;14341;51.256;22.478;2022-10-16T17:44:22;22.90;;;14.30;;
26742;SDS011;14341;51.256;22.478;2022-10-16T17:47:27;22.17;;;15.25;;
26742;SDS011;14341;51.256;22.478;2022-10-16T17:50:31;28.83;;;17.63;;
26742;SDS011;14341;51.256;22.478;2022-10-16T17:53:34;33.92;;;20.98;;
26742;SDS011;14341;51.256;22.478;2022-10-16T17:56:38;38.22;;;21.33;;
26742;SDS011;14341;51.256;22.478;2022-10-16T17:59:42;34.53;;;19.20;;
26742;SDS011;14341;51.256;22.478;2022-10-16T18:02:48;38.83;;;22.45;;
26742;SDS011;14341;51.256;22.478;2022-10-16T18:05:52;68.32;;;33.28;;
26742;SDS011;14341;51.256;22.478;2022-10-16T18:08:57;81.07;;;40.55;;
26742;SDS011;14341;51.256;22.478;2022-10-16T18:12:02;68.57;;;35.42;;
26742;SDS011;14341;51.256;22.478;2022-10-16T18:15:05;55.58;;;30.77;;
26742;SDS011;14341;51.256;22.478;2022-10-16T18:18:11;198.32;;;133.30;;
26742;SDS011;14341;51.256;22.478;2022-10-16T18:21:15;74.18;;;43.67;;
26742;SDS011;14341;51.256;22.478;2022-10-16T18:24:21;41.72;;;25.67;;
26742;SDS011;14341;51.256;22.478;2022-10-16T18:27:26;32.67;;;20.92;;
26742;SDS011;14341;51.256;22.478;2022-10-16T18:30:30;30.08;;;20.13;;